Euskara    
Meteorología y climatología de Navarra
Datos de la estación - Meteo Navarra

Estación de Aguilar de Codés GN

Altitud 736 m.


Datos desde el 18/10/2020 hasta el 19/10/2020 en horario solar
Los datos son PROVISIONALES

Anterior Página 1 de 1 Siguiente Descargar: Formato para Excel 2000 o superior   Formato csv   Formato para OpenOffice Calc
Fecha Temperatura Humedad relativa Radiación global Insolación Precipitación Vel. viento 10 m Vel. viento 10 m Dir. viento 10 m
°C % W/m² s l/m² m/s km/h °
18/10/2020 0:00 9.2 66 0.0 0 0.0 2.3 8.2 280
18/10/2020 0:10 8.9 67 0.0 0 0.0 2.0 7.1 286
18/10/2020 0:20 9.2 65 0.0 0 0.0 2.3 8.1 295
18/10/2020 0:30 9.2 67 0.0 0 0.0 2.6 9.3 303
18/10/2020 0:40 8.9 69 0.0 0 0.0 1.4 5.0 301
18/10/2020 0:50 8.4 71 0.0 0 0.0 1.7 6.1 292
18/10/2020 1:00 8.6 71 0.0 0 0.0 2.0 7.1 300
18/10/2020 1:10 8.4 71 0.0 0 0.0 1.4 4.9 294
18/10/2020 1:20 8.1 72 0.0 0 0.0 0.9 3.2 301
18/10/2020 1:30 7.9 72 0.0 0 0.0 1.4 5.1 284
18/10/2020 1:40 8.3 71 0.0 0 0.0 2.5 9.0 261
18/10/2020 1:50 8.5 69 0.0 0 0.0 2.2 7.8 274
18/10/2020 2:00 8.5 68 0.0 0 0.0 2.2 7.9 276
18/10/2020 2:10 8.7 68 0.0 0 0.0 2.4 8.7 282
18/10/2020 2:20 8.8 66 0.0 0 0.0 2.9 10.5 299
18/10/2020 2:30 9.1 65 0.0 0 0.0 3.2 11.4 292
18/10/2020 2:40 9.1 64 0.0 0 0.0 3.1 11.2 295
18/10/2020 2:50 9.1 64 0.0 0 0.0 3.0 10.9 304
18/10/2020 3:00 8.8 65 0.0 0 0.0 1.4 4.9 303
18/10/2020 3:10 8.3 67 0.0 0 0.0 1.4 4.9 302
18/10/2020 3:20 8.2 67 0.0 0 0.0 0.8 2.8 329
18/10/2020 3:30 7.8 69 0.0 0 0.0 0.6 2.3 348
18/10/2020 3:40 8.7 65 0.0 0 0.0 0.9 3.3 207
18/10/2020 3:50 9.1 62 0.0 0 0.0 1.4 5.1 226
18/10/2020 4:00 9.2 61 0.0 0 0.0 1.4 5.0 252
18/10/2020 4:10 8.8 63 0.0 0 0.0 1.2 4.4 270
18/10/2020 4:20 8.7 64 0.0 0 0.0 1.2 4.3 256
18/10/2020 4:30 8.5 65 0.0 0 0.0 1.5 5.3 269
18/10/2020 4:40 8.3 66 0.0 0 0.0 1.5 5.4 313
18/10/2020 4:50 8.6 66 0.0 0 0.0 1.7 6.0 292
18/10/2020 5:00 8.2 69 0.0 0 0.0 2.4 8.6 266
18/10/2020 5:10 8.3 69 0.0 0 0.0 1.7 6.2 288
18/10/2020 5:20 8.5 69 0.0 0 0.0 1.5 5.3 281
18/10/2020 5:30 8.8 67 0.0 0 0.0 1.8 6.5 258
18/10/2020 5:40 8.1 71 0.0 0 0.0 2.4 8.5 240
18/10/2020 5:50 8.3 72 0.0 0 0.0 1.9 6.9 245
18/10/2020 6:00 8.5 71 0.0 0 0.0 1.8 6.6 247
18/10/2020 6:10 8.7 68 0.0 0 0.0 2.1 7.6 274
18/10/2020 6:20 8.9 66 0.0 0 0.0 2.8 10.0 292
18/10/2020 6:30 9.3 63 0.0 0 0.0 2.4 8.5 295
18/10/2020 6:40 9.5 61 14.5 0 0.0 2.4 8.7 306
18/10/2020 6:50 9.4 62 29.3 276 0.0 2.5 9.0 311
18/10/2020 7:00 9.4 63 45.6 600 0.0 2.0 7.2 309
18/10/2020 7:10 9.8 62 63.5 600 0.0 2.6 9.5 306
18/10/2020 7:20 10.1 62 81.2 600 0.0 2.5 9.1 303
18/10/2020 7:30 10.4 61 106.4 600 0.0 2.5 9.1 297
18/10/2020 7:40 10.7 61 119.9 600 0.0 2.3 8.1 293
18/10/2020 7:50 10.6 63 120.8 548 0.0 2.0 7.3 296
18/10/2020 8:00 10.9 65 119.8 132 0.0 1.7 6.2 285
18/10/2020 8:10 11.1 65 162.1 310 0.0 0.9 3.1 260
18/10/2020 8:20 11.1 70 167.8 400 0.0 0.3 1.0 193
18/10/2020 8:30 10.5 71 175.0 280 0.0 0.6 2.2 121
18/10/2020 8:40 10.5 72 206.5 436 0.0 0.9 3.2 303
18/10/2020 8:50 10.9 68 289.9 600 0.0 1.0 3.7 322
18/10/2020 9:00 12.0 65 388.3 600 0.0 1.7 6.1 300
18/10/2020 9:10 12.6 61 445.8 600 0.0 2.4 8.5 316
18/10/2020 9:20 13.1 59 456.1 600 0.0 1.8 6.5 304
18/10/2020 9:30 13.7 60 522.5 600 0.0 2.5 8.9 317
18/10/2020 9:40 13.6 58 363.0 468 0.0 3.8 13.6 317
18/10/2020 9:50 13.5 59 410.2 600 0.0 2.0 7.1 294
18/10/2020 10:00 14.9 58 457.2 600 0.0 1.0 3.7 225
18/10/2020 10:10 15.8 54 548.8 600 0.0 1.8 6.5 303
18/10/2020 10:20 15.4 53 557.3 600 0.0 2.7 9.9 315
18/10/2020 10:30 15.9 49 567.3 600 0.0 1.8 6.5 313
18/10/2020 10:40 16.4 46 576.1 600 0.0 0.5 1.6 23
18/10/2020 10:50 17.1 45 582.8 600 0.0 0.6 2.0 334
18/10/2020 11:00 17.5 45 586.5 600 0.0 0.9 3.2 69
18/10/2020 11:10 18.3 43 565.2 600 0.0 2.2 7.9 169
18/10/2020 11:20 18.3 42 612.1 600 0.0 2.0 7.1 188
18/10/2020 11:30 18.9 43 613.9 600 0.0 1.4 4.9 139
18/10/2020 11:40 18.6 45 609.2 600 0.0 2.5 9.1 111
18/10/2020 11:50 18.6 44 610.8 600 0.0 2.2 7.8 120
18/10/2020 12:00 18.6 45 633.0 600 0.0 2.0 7.3 115
18/10/2020 12:10 18.9 43 651.0 600 0.0 2.0 7.1 103
18/10/2020 12:20 18.9 41 632.4 600 0.0 1.6 5.6 118
18/10/2020 12:30 19.1 41 601.7 600 0.0 1.9 6.8 135
18/10/2020 12:40 19.6 39 614.9 600 0.0 2.2 7.7 172
18/10/2020 12:50 19.7 38 595.8 600 0.0 1.8 6.5 180
18/10/2020 13:00 19.5 37 508.7 600 0.0 1.4 4.9 158
18/10/2020 13:10 19.6 37 453.1 600 0.0 2.2 8.0 197
18/10/2020 13:20 20.1 37 558.7 600 0.0 1.0 3.7 183
18/10/2020 13:30 20.0 36 498.1 600 0.0 1.8 6.5 166
18/10/2020 13:40 19.5 36 478.2 600 0.0 1.7 6.0 148
18/10/2020 13:50 19.1 37 320.3 430 0.0 1.2 4.5 151
18/10/2020 14:00 19.0 41 318.7 556 0.0 1.8 6.5 153
18/10/2020 14:10 18.7 42 260.0 254 0.0 1.8 6.4 146
18/10/2020 14:20 18.2 44 247.3 174 0.0 2.0 7.3 121
18/10/2020 14:30 18.2 44 240.9 306 0.0 1.6 5.7 143
18/10/2020 14:40 18.0 45 220.4 0 0.0 1.0 3.7 144
18/10/2020 14:50 17.9 47 296.6 412 0.0 1.2 4.4 134
18/10/2020 15:00 18.5 45 323.2 600 0.0 1.4 4.9 151
18/10/2020 15:10 18.0 44 211.3 600 0.0 3.0 10.8 131
18/10/2020 15:20 17.9 44 292.2 600 0.0 2.4 8.5 137
18/10/2020 15:30 18.4 44 372.5 600 0.0 2.4 8.6 126
18/10/2020 15:40 18.6 44 326.1 600 0.0 2.5 8.8 129
18/10/2020 15:50 18.4 45 294.0 600 0.0 2.1 7.6 131
18/10/2020 16:00 18.3 45 241.3 600 0.0 2.0 7.3 126
18/10/2020 16:10 17.8 48 193.6 600 0.0 1.3 4.7 151
18/10/2020 16:20 17.4 49 152.2 600 0.0 1.6 5.6 124
18/10/2020 16:30 16.6 51 119.7 600 0.0 1.4 5.0 134
18/10/2020 16:40 16.4 52 82.1 470 0.0 0.9 3.3 182
18/10/2020 16:50 15.8 52 26.2 0 0.0 0.8 3.0 185
18/10/2020 17:00 14.9 55 19.9 0 0.0 0.8 3.0 43
18/10/2020 17:10 14.3 57 2.4 0 0.0 0.7 2.6 87
18/10/2020 17:20 14.0 57 0.0 0 0.0 0.2 0.8 347
18/10/2020 17:30 13.7 59 0.0 0 0.0 0.3 1.2 352
18/10/2020 17:40 13.4 60 0.0 0 0.0 0.2 0.6 5
18/10/2020 17:50 12.8 63 0.0 0 0.0 1.0 3.5 312
18/10/2020 18:00 12.6 63 0.0 0 0.0 0.9 3.3 308
18/10/2020 18:10 12.3 64 0.0 0 0.0 0.9 3.2 315
18/10/2020 18:20 12.1 65 0.0 0 0.0 0.9 3.1 315
18/10/2020 18:30 11.9 65 0.0 0 0.0 1.0 3.5 309
18/10/2020 18:40 11.6 66 0.0 0 0.0 1.1 3.9 311
18/10/2020 18:50 11.6 66 0.0 0 0.0 1.0 3.6 325
18/10/2020 19:00 11.3 67 0.0 0 0.0 1.4 5.0 316
18/10/2020 19:10 11.6 66 0.0 0 0.0 1.2 4.4 316
18/10/2020 19:20 11.2 67 0.0 0 0.0 1.3 4.6 318
18/10/2020 19:30 11.2 67 0.0 0 0.0 0.9 3.1 320
18/10/2020 19:40 11.1 67 0.0 0 0.0 1.3 4.6 317
18/10/2020 19:50 10.8 69 0.0 0 0.0 1.4 4.9 318
18/10/2020 20:00 11.1 68 0.0 0 0.0 1.1 3.9 320
18/10/2020 20:10 10.9 68 0.0 0 0.0 0.6 2.0 336
18/10/2020 20:20 10.9 68 0.0 0 0.0 0.6 2.2 56
18/10/2020 20:30 10.6 69 0.0 0 0.0 0.5 1.8 350
18/10/2020 20:40 10.8 68 0.0 0 0.0 0.4 1.3 355
18/10/2020 20:50 10.6 69 0.0 0 0.0 0.8 2.8 324
18/10/2020 21:00 10.7 68 0.0 0 0.0 0.2 0.5 348
18/10/2020 21:10 10.6 68 0.0 0 0.0 0.4 1.4 357
18/10/2020 21:20 10.6 68 0.0 0 0.0 0.4 1.3 51
18/10/2020 21:30 10.5 69 0.0 0 0.0 0.7 2.4 39
18/10/2020 21:40 10.4 67 0.0 0 0.0 1.1 3.9 104
18/10/2020 21:50 10.6 66 0.0 0 0.0 1.3 4.7 112
18/10/2020 22:00 10.7 65 0.0 0 0.0 1.0 3.4 99
18/10/2020 22:10 10.4 66 0.0 0 0.0 0.7 2.6 99
18/10/2020 22:20 10.3 67 0.0 0 0.0 0.6 2.2 89
18/10/2020 22:30 10.3 66 0.0 0 0.0 1.0 3.6 93
18/10/2020 22:40 10.5 64 0.0 0 0.0 0.9 3.1 113
18/10/2020 22:50 10.3 65 0.0 0 0.0 0.7 2.5 114
18/10/2020 23:00 10.3 65 0.0 0 0.0 1.1 3.9 114
18/10/2020 23:10 10.3 64 0.0 0 0.0 1.4 5.1 102
18/10/2020 23:20 10.5 64 0.0 0 0.0 1.9 6.9 108
18/10/2020 23:30 10.5 63 0.0 0 0.0 2.0 7.3 109
18/10/2020 23:40 10.6 63 0.0 0 0.0 2.1 7.4 111
18/10/2020 23:50 10.5 63 0.0 0 0.0 1.8 6.4 106
Anterior Página 1 de 1 Siguiente

NOTA: Tipo de datos según el color:
   - Valores diarios o 10 minutos correctos
   - Valores diarios calculados a partir de un número de datos 10 minutos menor que 144 y mayor que 120, o de un número de datos semihorarios menor que 48 y mayor que 40 (caso de las estaciones de INTIA Y Ministerio)
   - Valores diez minutos estimados


Contacto        Enlaces        Aviso legal